sensor_id;sensor_type;location;lat;lon;timestamp;P1;durP1;ratioP1;P2;durP2;ratioP2
11964;SDS011;6042;41.326;19.826;2023-04-06T00:00:04;6.73;;;5.03;;
11964;SDS011;6042;41.326;19.826;2023-04-06T00:02:36;5.00;;;4.50;;
11964;SDS011;6042;41.326;19.826;2023-04-06T00:05:05;4.90;;;4.50;;
11964;SDS011;6042;41.326;19.826;2023-04-06T00:07:35;5.07;;;4.67;;
11964;SDS011;6042;41.326;19.826;2023-04-06T00:10:04;4.93;;;4.53;;
11964;SDS011;6042;41.326;19.826;2023-04-06T00:12:33;5.73;;;4.30;;
11964;SDS011;6042;41.326;19.826;2023-04-06T00:15:02;4.93;;;4.40;;
11964;SDS011;6042;41.326;19.826;2023-04-06T00:17:32;4.53;;;4.13;;
11964;SDS011;6042;41.326;19.826;2023-04-06T00:20:00;5.50;;;4.10;;
11964;SDS011;6042;41.326;19.826;2023-04-06T00:22:29;4.90;;;4.40;;
11964;SDS011;6042;41.326;19.826;2023-04-06T00:24:59;3.60;;;3.30;;
11964;SDS011;6042;41.326;19.826;2023-04-06T00:27:27;4.13;;;3.40;;
11964;SDS011;6042;41.326;19.826;2023-04-06T00:29:56;4.07;;;3.70;;
11964;SDS011;6042;41.326;19.826;2023-04-06T00:32:24;4.33;;;3.93;;
11964;SDS011;6042;41.326;19.826;2023-04-06T00:34:54;4.00;;;3.60;;
11964;SDS011;6042;41.326;19.826;2023-04-06T00:37:22;3.90;;;3.60;;
11964;SDS011;6042;41.326;19.826;2023-04-06T00:39:51;4.47;;;3.30;;
11964;SDS011;6042;41.326;19.826;2023-04-06T00:42:22;3.80;;;3.50;;
11964;SDS011;6042;41.326;19.826;2023-04-06T00:44:53;3.77;;;3.37;;
11964;SDS011;6042;41.326;19.826;2023-04-06T00:47:22;6.30;;;3.37;;
11964;SDS011;6042;41.326;19.826;2023-04-06T00:49:51;5.13;;;3.40;;
11964;SDS011;6042;41.326;19.826;2023-04-06T00:52:21;3.30;;;3.00;;
11964;SDS011;6042;41.326;19.826;2023-04-06T00:54:49;3.63;;;3.33;;
11964;SDS011;6042;41.326;19.826;2023-04-06T00:57:19;3.60;;;3.30;;
11964;SDS011;6042;41.326;19.826;2023-04-06T00:59:54;4.03;;;3.20;;
11964;SDS011;6042;41.326;19.826;2023-04-06T01:02:23;5.40;;;3.30;;
11964;SDS011;6042;41.326;19.826;2023-04-06T01:04:53;3.77;;;3.47;;
11964;SDS011;6042;41.326;19.826;2023-04-06T01:07:42;3.43;;;3.13;;
11964;SDS011;6042;41.326;19.826;2023-04-06T01:10:22;3.73;;;3.40;;
11964;SDS011;6042;41.326;19.826;2023-04-06T01:12:59;4.27;;;3.87;;
11964;SDS011;6042;41.326;19.826;2023-04-06T01:15:57;4.87;;;4.47;;
11964;SDS011;6042;41.326;19.826;2023-04-06T01:18:46;4.67;;;3.90;;
11964;SDS011;6042;41.326;19.826;2023-04-06T01:21:18;5.13;;;4.13;;
11964;SDS011;6042;41.326;19.826;2023-04-06T01:24:07;4.40;;;3.83;;
11964;SDS011;6042;41.326;19.826;2023-04-06T01:27:01;3.70;;;3.40;;
11964;SDS011;6042;41.326;19.826;2023-04-06T01:29:53;3.50;;;3.20;;
11964;SDS011;6042;41.326;19.826;2023-04-06T01:32:51;3.63;;;3.33;;
11964;SDS011;6042;41.326;19.826;2023-04-06T01:35:34;4.13;;;3.20;;
11964;SDS011;6042;41.326;19.826;2023-04-06T01:38:13;2.90;;;2.70;;
11964;SDS011;6042;41.326;19.826;2023-04-06T01:40:44;3.17;;;2.97;;
11964;SDS011;6042;41.326;19.826;2023-04-06T01:43:16;3.03;;;2.73;;
11964;SDS011;6042;41.326;19.826;2023-04-06T01:45:58;3.73;;;3.43;;
11964;SDS011;6042;41.326;19.826;2023-04-06T01:48:32;3.43;;;3.13;;
11964;SDS011;6042;41.326;19.826;2023-04-06T01:51:11;4.53;;;3.00;;
11964;SDS011;6042;41.326;19.826;2023-04-06T01:53:47;3.77;;;3.00;;
11964;SDS011;6042;41.326;19.826;2023-04-06T01:56:20;3.90;;;2.83;;
11964;SDS011;6042;41.326;19.826;2023-04-06T01:58:59;3.60;;;3.30;;
11964;SDS011;6042;41.326;19.826;2023-04-06T02:01:35;2.90;;;2.70;;
11964;SDS011;6042;41.326;19.826;2023-04-06T02:04:03;3.67;;;3.37;;
11964;SDS011;6042;41.326;19.826;2023-04-06T02:06:32;5.77;;;3.60;;
11964;SDS011;6042;41.326;19.826;2023-04-06T02:09:03;3.60;;;3.30;;
11964;SDS011;6042;41.326;19.826;2023-04-06T02:11:34;3.37;;;3.00;;
11964;SDS011;6042;41.326;19.826;2023-04-06T02:14:03;3.73;;;3.40;;
11964;SDS011;6042;41.326;19.826;2023-04-06T02:16:36;3.00;;;2.80;;
11964;SDS011;6042;41.326;19.826;2023-04-06T02:19:05;3.63;;;3.33;;
11964;SDS011;6042;41.326;19.826;2023-04-06T02:21:33;3.57;;;3.27;;
11964;SDS011;6042;41.326;19.826;2023-04-06T02:24:02;3.70;;;3.40;;
11964;SDS011;6042;41.326;19.826;2023-04-06T02:26:31;3.87;;;3.57;;
11964;SDS011;6042;41.326;19.826;2023-04-06T02:29:01;5.10;;;3.40;;
11964;SDS011;6042;41.326;19.826;2023-04-06T02:31:32;3.67;;;3.27;;
11964;SDS011;6042;41.326;19.826;2023-04-06T02:34:02;3.90;;;3.40;;
11964;SDS011;6042;41.326;19.826;2023-04-06T02:36:31;3.67;;;3.40;;
11964;SDS011;6042;41.326;19.826;2023-04-06T02:39:00;4.00;;;3.67;;
11964;SDS011;6042;41.326;19.826;2023-04-06T02:41:29;4.37;;;3.97;;
11964;SDS011;6042;41.326;19.826;2023-04-06T02:44:00;4.40;;;3.47;;
11964;SDS011;6042;41.326;19.826;2023-04-06T02:46:37;3.93;;;3.53;;
11964;SDS011;6042;41.326;19.826;2023-04-06T02:49:06;3.63;;;2.97;;
11964;SDS011;6042;41.326;19.826;2023-04-06T02:51:35;6.87;;;3.27;;
11964;SDS011;6042;41.326;19.826;2023-04-06T02:54:18;3.90;;;2.80;;
11964;SDS011;6042;41.326;19.826;2023-04-06T02:56:46;3.80;;;2.70;;
11964;SDS011;6042;41.326;19.826;2023-04-06T02:59:17;3.53;;;3.27;;
11964;SDS011;6042;41.326;19.826;2023-04-06T03:01:57;3.30;;;3.00;;
11964;SDS011;6042;41.326;19.826;2023-04-06T03:04:27;5.63;;;3.37;;
11964;SDS011;6042;41.326;19.826;2023-04-06T03:06:57;3.40;;;3.10;;
11964;SDS011;6042;41.326;19.826;2023-04-06T03:09:36;3.63;;;3.33;;
11964;SDS011;6042;41.326;19.826;2023-04-06T03:12:05;6.93;;;3.67;;
11964;SDS011;6042;41.326;19.826;2023-04-06T03:14:55;4.20;;;3.80;;
11964;SDS011;6042;41.326;19.826;2023-04-06T03:17:24;3.70;;;3.40;;
11964;SDS011;6042;41.326;19.826;2023-04-06T03:19:56;3.90;;;3.60;;
11964;SDS011;6042;41.326;19.826;2023-04-06T03:22:25;3.43;;;3.13;;
11964;SDS011;6042;41.326;19.826;2023-04-06T03:24:54;3.47;;;3.17;;
11964;SDS011;6042;41.326;19.826;2023-04-06T03:27:22;3.67;;;3.37;;
11964;SDS011;6042;41.326;19.826;2023-04-06T03:29:51;3.67;;;3.40;;
11964;SDS011;6042;41.326;19.826;2023-04-06T03:32:30;4.27;;;3.87;;
11964;SDS011;6042;41.326;19.826;2023-04-06T03:34:59;3.63;;;3.33;;
11964;SDS011;6042;41.326;19.826;2023-04-06T03:37:27;4.90;;;3.63;;
11964;SDS011;6042;41.326;19.826;2023-04-06T03:40:01;4.50;;;4.10;;
11964;SDS011;6042;41.326;19.826;2023-04-06T03:42:30;4.43;;;4.03;;
11964;SDS011;6042;41.326;19.826;2023-04-06T03:45:09;4.20;;;3.80;;
11964;SDS011;6042;41.326;19.826;2023-04-06T03:47:46;5.30;;;4.80;;
11964;SDS011;6042;41.326;19.826;2023-04-06T03:50:15;4.17;;;3.87;;
11964;SDS011;6042;41.326;19.826;2023-04-06T03:52:44;4.47;;;3.90;;
11964;SDS011;6042;41.326;19.826;2023-04-06T03:55:12;4.83;;;4.00;;
11964;SDS011;6042;41.326;19.826;2023-04-06T03:57:41;4.47;;;3.80;;
11964;SDS011;6042;41.326;19.826;2023-04-06T04:00:10;4.57;;;4.17;;
11964;SDS011;6042;41.326;19.826;2023-04-06T04:02:39;4.40;;;4.00;;
11964;SDS011;6042;41.326;19.826;2023-04-06T04:05:09;4.40;;;4.00;;
11964;SDS011;6042;41.326;19.826;2023-04-06T04:07:38;4.60;;;4.23;;
11964;SDS011;6042;41.326;19.826;2023-04-06T04:10:09;4.23;;;3.73;;
11964;SDS011;6042;41.326;19.826;2023-04-06T04:12:38;5.07;;;4.60;;
11964;SDS011;6042;41.326;19.826;2023-04-06T04:15:07;4.90;;;4.07;;
11964;SDS011;6042;41.326;19.826;2023-04-06T04:17:36;4.60;;;4.20;;
11964;SDS011;6042;41.326;19.826;2023-04-06T04:20:05;4.90;;;4.07;;
11964;SDS011;6042;41.326;19.826;2023-04-06T04:22:36;4.40;;;4.10;;
11964;SDS011;6042;41.326;19.826;2023-04-06T04:25:05;4.77;;;4.37;;
11964;SDS011;6042;41.326;19.826;2023-04-06T04:27:38;5.67;;;4.60;;
11964;SDS011;6042;41.326;19.826;2023-04-06T04:30:07;5.30;;;4.33;;
11964;SDS011;6042;41.326;19.826;2023-04-06T04:32:36;4.60;;;4.20;;
11964;SDS011;6042;41.326;19.826;2023-04-06T04:35:08;6.07;;;4.40;;
11964;SDS011;6042;41.326;19.826;2023-04-06T04:37:41;6.13;;;5.53;;
11964;SDS011;6042;41.326;19.826;2023-04-06T04:40:11;6.00;;;4.87;;
11964;SDS011;6042;41.326;19.826;2023-04-06T04:42:48;6.63;;;4.60;;
11964;SDS011;6042;41.326;19.826;2023-04-06T04:45:25;5.00;;;4.50;;
11964;SDS011;6042;41.326;19.826;2023-04-06T04:47:54;4.60;;;4.17;;
11964;SDS011;6042;41.326;19.826;2023-04-06T04:50:27;6.73;;;4.77;;
11964;SDS011;6042;41.326;19.826;2023-04-06T04:52:59;4.83;;;4.43;;
11964;SDS011;6042;41.326;19.826;2023-04-06T04:55:28;6.10;;;4.97;;
11964;SDS011;6042;41.326;19.826;2023-04-06T04:57:58;5.63;;;5.13;;
11964;SDS011;6042;41.326;19.826;2023-04-06T05:00:46;5.20;;;4.60;;
11964;SDS011;6042;41.326;19.826;2023-04-06T05:03:17;7.07;;;5.20;;
11964;SDS011;6042;41.326;19.826;2023-04-06T05:05:57;5.70;;;5.03;;
11964;SDS011;6042;41.326;19.826;2023-04-06T05:08:31;5.80;;;5.23;;
11964;SDS011;6042;41.326;19.826;2023-04-06T05:11:00;6.37;;;4.97;;
11964;SDS011;6042;41.326;19.826;2023-04-06T05:13:33;8.53;;;6.47;;
11964;SDS011;6042;41.326;19.826;2023-04-06T05:16:08;10.83;;;8.63;;
11964;SDS011;6042;41.326;19.826;2023-04-06T05:18:37;15.53;;;9.73;;
11964;SDS011;6042;41.326;19.826;2023-04-06T05:21:06;17.43;;;9.83;;
11964;SDS011;6042;41.326;19.826;2023-04-06T05:23:49;11.10;;;9.37;;
11964;SDS011;6042;41.326;19.826;2023-04-06T05:26:18;11.17;;;9.57;;
11964;SDS011;6042;41.326;19.826;2023-04-06T05:28:47;14.40;;;10.43;;
11964;SDS011;6042;41.326;19.826;2023-04-06T05:31:17;16.57;;;11.27;;
11964;SDS011;6042;41.326;19.826;2023-04-06T05:33:48;17.07;;;10.30;;
11964;SDS011;6042;41.326;19.826;2023-04-06T05:36:28;13.30;;;8.83;;
11964;SDS011;6042;41.326;19.826;2023-04-06T05:39:01;13.03;;;9.03;;
11964;SDS011;6042;41.326;19.826;2023-04-06T05:41:41;11.23;;;7.73;;
11964;SDS011;6042;41.326;19.826;2023-04-06T05:47:10;14.10;;;11.30;;
11964;SDS011;6042;41.326;19.826;2023-04-06T05:49:41;17.20;;;11.10;;
11964;SDS011;6042;41.326;19.826;2023-04-06T05:52:19;14.53;;;11.27;;
11964;SDS011;6042;41.326;19.826;2023-04-06T05:54:50;16.93;;;12.30;;
11964;SDS011;6042;41.326;19.826;2023-04-06T05:57:18;15.97;;;11.43;;
11964;SDS011;6042;41.326;19.826;2023-04-06T05:59:48;16.87;;;12.10;;
11964;SDS011;6042;41.326;19.826;2023-04-06T06:02:18;17.17;;;11.37;;
11964;SDS011;6042;41.326;19.826;2023-04-06T06:04:51;18.53;;;12.07;;
11964;SDS011;6042;41.326;19.826;2023-04-06T06:07:20;18.37;;;12.27;;
11964;SDS011;6042;41.326;19.826;2023-04-06T06:10:00;16.00;;;12.57;;
11964;SDS011;6042;41.326;19.826;2023-04-06T06:12:32;18.83;;;12.50;;
11964;SDS011;6042;41.326;19.826;2023-04-06T06:15:01;20.20;;;14.20;;
11964;SDS011;6042;41.326;19.826;2023-04-06T06:17:34;23.03;;;14.60;;
11964;SDS011;6042;41.326;19.826;2023-04-06T06:20:06;22.13;;;15.77;;
11964;SDS011;6042;41.326;19.826;2023-04-06T06:22:36;23.60;;;16.60;;
11964;SDS011;6042;41.326;19.826;2023-04-06T06:25:07;25.83;;;17.53;;
11964;SDS011;6042;41.326;19.826;2023-04-06T06:27:36;24.83;;;17.93;;
11964;SDS011;6042;41.326;19.826;2023-04-06T06:30:05;30.77;;;20.77;;
11964;SDS011;6042;41.326;19.826;2023-04-06T06:32:38;25.60;;;22.13;;
11964;SDS011;6042;41.326;19.826;2023-04-06T06:35:08;33.07;;;22.47;;
11964;SDS011;6042;41.326;19.826;2023-04-06T06:37:37;28.87;;;21.70;;
11964;SDS011;6042;41.326;19.826;2023-04-06T06:40:11;27.10;;;21.03;;
11964;SDS011;6042;41.326;19.826;2023-04-06T06:42:46;23.40;;;18.93;;
11964;SDS011;6042;41.326;19.826;2023-04-06T06:45:24;28.37;;;19.07;;
11964;SDS011;6042;41.326;19.826;2023-04-06T06:47:53;21.37;;;16.60;;
11964;SDS011;6042;41.326;19.826;2023-04-06T06:50:21;19.83;;;14.83;;
11964;SDS011;6042;41.326;19.826;2023-04-06T06:52:50;22.10;;;15.53;;
11964;SDS011;6042;41.326;19.826;2023-04-06T06:55:20;19.27;;;14.13;;
11964;SDS011;6042;41.326;19.826;2023-04-06T06:57:49;17.63;;;13.93;;
11964;SDS011;6042;41.326;19.826;2023-04-06T07:00:18;20.83;;;13.97;;
11964;SDS011;6042;41.326;19.826;2023-04-06T07:02:49;18.23;;;13.73;;
11964;SDS011;6042;41.326;19.826;2023-04-06T07:05:17;19.13;;;13.50;;
11964;SDS011;6042;41.326;19.826;2023-04-06T07:07:57;16.60;;;12.40;;
11964;SDS011;6042;41.326;19.826;2023-04-06T07:10:27;16.07;;;10.73;;
11964;SDS011;6042;41.326;19.826;2023-04-06T07:12:55;11.13;;;8.57;;
11964;SDS011;6042;41.326;19.826;2023-04-06T07:15:24;19.13;;;10.70;;
11964;SDS011;6042;41.326;19.826;2023-04-06T07:17:53;17.83;;;10.20;;
11964;SDS011;6042;41.326;19.826;2023-04-06T07:20:22;10.73;;;8.70;;
11964;SDS011;6042;41.326;19.826;2023-04-06T07:22:52;10.03;;;9.00;;
11964;SDS011;6042;41.326;19.826;2023-04-06T07:25:20;10.83;;;9.40;;
11964;SDS011;6042;41.326;19.826;2023-04-06T07:27:52;14.27;;;8.67;;
11964;SDS011;6042;41.326;19.826;2023-04-06T07:30:23;10.73;;;8.97;;
11964;SDS011;6042;41.326;19.826;2023-04-06T07:32:53;12.17;;;8.87;;
11964;SDS011;6042;41.326;19.826;2023-04-06T07:35:22;12.13;;;8.40;;
11964;SDS011;6042;41.326;19.826;2023-04-06T07:37:53;11.47;;;9.13;;
11964;SDS011;6042;41.326;19.826;2023-04-06T07:40:22;9.93;;;8.83;;
11964;SDS011;6042;41.326;19.826;2023-04-06T07:42:55;15.03;;;9.43;;
11964;SDS011;6042;41.326;19.826;2023-04-06T07:45:24;14.00;;;9.53;;
11964;SDS011;6042;41.326;19.826;2023-04-06T07:47:53;10.13;;;9.00;;
11964;SDS011;6042;41.326;19.826;2023-04-06T07:50:24;16.63;;;9.47;;
11964;SDS011;6042;41.326;19.826;2023-04-06T07:52:53;13.30;;;9.47;;
11964;SDS011;6042;41.326;19.826;2023-04-06T07:55:22;12.87;;;9.97;;
11964;SDS011;6042;41.326;19.826;2023-04-06T07:57:50;10.73;;;9.37;;
11964;SDS011;6042;41.326;19.826;2023-04-06T08:00:20;12.87;;;10.40;;
11964;SDS011;6042;41.326;19.826;2023-04-06T08:02:49;10.73;;;9.63;;
11964;SDS011;6042;41.326;19.826;2023-04-06T08:05:18;11.30;;;8.70;;
11964;SDS011;6042;41.326;19.826;2023-04-06T08:07:47;12.07;;;8.50;;
11964;SDS011;6042;41.326;19.826;2023-04-06T08:10:15;11.53;;;8.40;;
11964;SDS011;6042;41.326;19.826;2023-04-06T08:12:43;11.07;;;8.27;;
11964;SDS011;6042;41.326;19.826;2023-04-06T08:15:12;8.63;;;7.73;;
11964;SDS011;6042;41.326;19.826;2023-04-06T08:17:42;12.20;;;8.00;;
11964;SDS011;6042;41.326;19.826;2023-04-06T08:20:10;9.67;;;7.33;;
11964;SDS011;6042;41.326;19.826;2023-04-06T08:22:39;9.40;;;7.50;;
11964;SDS011;6042;41.326;19.826;2023-04-06T08:25:07;8.00;;;7.20;;
11964;SDS011;6042;41.326;19.826;2023-04-06T08:27:36;9.63;;;7.80;;
11964;SDS011;6042;41.326;19.826;2023-04-06T08:30:05;9.03;;;7.53;;
11964;SDS011;6042;41.326;19.826;2023-04-06T08:32:34;9.10;;;7.93;;
11964;SDS011;6042;41.326;19.826;2023-04-06T08:35:04;16.33;;;8.40;;
11964;SDS011;6042;41.326;19.826;2023-04-06T08:37:33;11.33;;;7.87;;
11964;SDS011;6042;41.326;19.826;2023-04-06T08:40:01;8.70;;;7.80;;
11964;SDS011;6042;41.326;19.826;2023-04-06T08:42:31;10.30;;;8.23;;
11964;SDS011;6042;41.326;19.826;2023-04-06T08:45:02;11.60;;;7.90;;
11964;SDS011;6042;41.326;19.826;2023-04-06T08:47:30;12.30;;;7.67;;
11964;SDS011;6042;41.326;19.826;2023-04-06T08:49:59;9.33;;;8.23;;
11964;SDS011;6042;41.326;19.826;2023-04-06T08:52:32;13.80;;;8.30;;
11964;SDS011;6042;41.326;19.826;2023-04-06T08:55:00;10.50;;;7.77;;
11964;SDS011;6042;41.326;19.826;2023-04-06T08:57:30;8.00;;;5.60;;
11964;SDS011;6042;41.326;19.826;2023-04-06T08:59:59;5.17;;;4.73;;
11964;SDS011;6042;41.326;19.826;2023-04-06T09:02:28;7.10;;;5.50;;
11964;SDS011;6042;41.326;19.826;2023-04-06T09:04:57;8.87;;;6.20;;
11964;SDS011;6042;41.326;19.826;2023-04-06T09:07:29;9.57;;;5.93;;
11964;SDS011;6042;41.326;19.826;2023-04-06T09:09:57;5.60;;;4.77;;
11964;SDS011;6042;41.326;19.826;2023-04-06T09:12:26;5.60;;;5.10;;
11964;SDS011;6042;41.326;19.826;2023-04-06T09:14:56;6.27;;;5.17;;
11964;SDS011;6042;41.326;19.826;2023-04-06T09:17:26;5.50;;;5.00;;
11964;SDS011;6042;41.326;19.826;2023-04-06T09:19:56;6.10;;;5.50;;
11964;SDS011;6042;41.326;19.826;2023-04-06T09:22:25;6.67;;;4.90;;
11964;SDS011;6042;41.326;19.826;2023-04-06T09:24:56;7.07;;;5.47;;
11964;SDS011;6042;41.326;19.826;2023-04-06T09:27:31;4.97;;;4.10;;
11964;SDS011;6042;41.326;19.826;2023-04-06T09:30:04;5.10;;;4.23;;
11964;SDS011;6042;41.326;19.826;2023-04-06T09:32:45;5.23;;;4.60;;
11964;SDS011;6042;41.326;19.826;2023-04-06T09:35:15;5.53;;;4.90;;
11964;SDS011;6042;41.326;19.826;2023-04-06T09:37:44;5.67;;;4.40;;
11964;SDS011;6042;41.326;19.826;2023-04-06T09:40:14;4.67;;;3.83;;
11964;SDS011;6042;41.326;19.826;2023-04-06T09:42:44;6.27;;;4.50;;
11964;SDS011;6042;41.326;19.826;2023-04-06T09:45:14;4.40;;;4.00;;
11964;SDS011;6042;41.326;19.826;2023-04-06T09:47:43;5.43;;;4.07;;
11964;SDS011;6042;41.326;19.826;2023-04-06T09:50:14;4.57;;;3.93;;
11964;SDS011;6042;41.326;19.826;2023-04-06T09:52:46;5.87;;;3.93;;
11964;SDS011;6042;41.326;19.826;2023-04-06T09:55:20;4.67;;;4.00;;
11964;SDS011;6042;41.326;19.826;2023-04-06T09:57:54;9.87;;;3.77;;
11964;SDS011;6042;41.326;19.826;2023-04-06T10:00:29;3.90;;;3.20;;
11964;SDS011;6042;41.326;19.826;2023-04-06T10:03:09;6.53;;;3.23;;
11964;SDS011;6042;41.326;19.826;2023-04-06T10:05:50;4.13;;;3.60;;
11964;SDS011;6042;41.326;19.826;2023-04-06T10:08:26;4.40;;;3.87;;
11964;SDS011;6042;41.326;19.826;2023-04-06T10:11:00;6.07;;;3.90;;
11964;SDS011;6042;41.326;19.826;2023-04-06T10:13:29;5.73;;;3.73;;
11964;SDS011;6042;41.326;19.826;2023-04-06T10:15:58;3.70;;;3.37;;
11964;SDS011;6042;41.326;19.826;2023-04-06T10:18:28;4.03;;;3.63;;
11964;SDS011;6042;41.326;19.826;2023-04-06T10:21:06;4.27;;;3.53;;
11964;SDS011;6042;41.326;19.826;2023-04-06T10:23:41;4.97;;;3.30;;
11964;SDS011;6042;41.326;19.826;2023-04-06T10:26:14;6.80;;;3.23;;
11964;SDS011;6042;41.326;19.826;2023-04-06T10:28:45;5.03;;;3.47;;
11964;SDS011;6042;41.326;19.826;2023-04-06T10:31:14;4.80;;;3.40;;
11964;SDS011;6042;41.326;19.826;2023-04-06T10:33:54;4.37;;;3.47;;
11964;SDS011;6042;41.326;19.826;2023-04-06T10:36:24;4.10;;;3.70;;
11964;SDS011;6042;41.326;19.826;2023-04-06T10:38:53;3.67;;;3.37;;
11964;SDS011;6042;41.326;19.826;2023-04-06T10:41:25;3.67;;;3.37;;
11964;SDS011;6042;41.326;19.826;2023-04-06T10:44:00;3.17;;;2.87;;
11964;SDS011;6042;41.326;19.826;2023-04-06T10:46:30;5.83;;;3.00;;
11964;SDS011;6042;41.326;19.826;2023-04-06T10:49:09;4.17;;;2.80;;
11964;SDS011;6042;41.326;19.826;2023-04-06T10:51:39;3.60;;;3.30;;
11964;SDS011;6042;41.326;19.826;2023-04-06T10:54:07;4.60;;;3.10;;
11964;SDS011;6042;41.326;19.826;2023-04-06T10:56:41;2.77;;;2.57;;
11964;SDS011;6042;41.326;19.826;2023-04-06T10:59:09;2.90;;;2.70;;
11964;SDS011;6042;41.326;19.826;2023-04-06T11:01:38;4.23;;;3.17;;
11964;SDS011;6042;41.326;19.826;2023-04-06T11:04:15;3.47;;;2.90;;
11964;SDS011;6042;41.326;19.826;2023-04-06T11:06:46;4.90;;;2.70;;
11964;SDS011;6042;41.326;19.826;2023-04-06T11:09:25;2.93;;;2.70;;
11964;SDS011;6042;41.326;19.826;2023-04-06T11:11:56;5.63;;;3.50;;
11964;SDS011;6042;41.326;19.826;2023-04-06T11:14:24;6.23;;;3.00;;
11964;SDS011;6042;41.326;19.826;2023-04-06T11:16:53;4.17;;;3.10;;
11964;SDS011;6042;41.326;19.826;2023-04-06T11:19:22;3.03;;;2.73;;
11964;SDS011;6042;41.326;19.826;2023-04-06T11:21:50;3.10;;;2.80;;
11964;SDS011;6042;41.326;19.826;2023-04-06T11:24:20;3.10;;;2.70;;
11964;SDS011;6042;41.326;19.826;2023-04-06T11:26:51;3.50;;;2.90;;
11964;SDS011;6042;41.326;19.826;2023-04-06T11:29:22;3.50;;;2.83;;
11964;SDS011;6042;41.326;19.826;2023-04-06T11:31:53;2.70;;;2.50;;
11964;SDS011;6042;41.326;19.826;2023-04-06T11:34:28;3.90;;;3.47;;
11964;SDS011;6042;41.326;19.826;2023-04-06T11:36:57;3.40;;;3.13;;
11964;SDS011;6042;41.326;19.826;2023-04-06T11:39:28;4.00;;;3.00;;
11964;SDS011;6042;41.326;19.826;2023-04-06T11:41:57;3.87;;;3.33;;
11964;SDS011;6042;41.326;19.826;2023-04-06T11:44:33;4.43;;;3.53;;
11964;SDS011;6042;41.326;19.826;2023-04-06T11:47:02;4.17;;;3.77;;
11964;SDS011;6042;41.326;19.826;2023-04-06T11:49:33;3.60;;;3.30;;
11964;SDS011;6042;41.326;19.826;2023-04-06T11:52:14;3.53;;;3.23;;
11964;SDS011;6042;41.326;19.826;2023-04-06T11:54:43;4.17;;;3.23;;
11964;SDS011;6042;41.326;19.826;2023-04-06T11:57:12;3.60;;;3.23;;
11964;SDS011;6042;41.326;19.826;2023-04-06T11:59:43;3.63;;;3.10;;
11964;SDS011;6042;41.326;19.826;2023-04-06T12:02:12;5.67;;;3.70;;
11964;SDS011;6042;41.326;19.826;2023-04-06T12:04:40;4.97;;;3.60;;
11964;SDS011;6042;41.326;19.826;2023-04-06T12:07:09;7.60;;;3.40;;
11964;SDS011;6042;41.326;19.826;2023-04-06T12:09:38;4.53;;;3.67;;
11964;SDS011;6042;41.326;19.826;2023-04-06T12:12:06;3.70;;;3.30;;
11964;SDS011;6042;41.326;19.826;2023-04-06T12:14:35;3.57;;;3.27;;
11964;SDS011;6042;41.326;19.826;2023-04-06T12:17:05;4.20;;;3.80;;
11964;SDS011;6042;41.326;19.826;2023-04-06T12:19:33;4.97;;;3.70;;
11964;SDS011;6042;41.326;19.826;2023-04-06T12:22:02;4.27;;;3.87;;
11964;SDS011;6042;41.326;19.826;2023-04-06T12:24:30;4.53;;;3.43;;
11964;SDS011;6042;41.326;19.826;2023-04-06T12:26:59;5.17;;;3.40;;
11964;SDS011;6042;41.326;19.826;2023-04-06T12:29:36;7.13;;;3.43;;
11964;SDS011;6042;41.326;19.826;2023-04-06T12:32:06;3.30;;;3.00;;
11964;SDS011;6042;41.326;19.826;2023-04-06T12:34:34;4.33;;;3.40;;
11964;SDS011;6042;41.326;19.826;2023-04-06T12:37:03;6.13;;;3.53;;
11964;SDS011;6042;41.326;19.826;2023-04-06T12:39:31;4.83;;;3.73;;
11964;SDS011;6042;41.326;19.826;2023-04-06T12:42:00;5.60;;;3.80;;
11964;SDS011;6042;41.326;19.826;2023-04-06T12:44:29;6.70;;;3.33;;
11964;SDS011;6042;41.326;19.826;2023-04-06T12:46:57;5.93;;;3.57;;
11964;SDS011;6042;41.326;19.826;2023-04-06T12:49:27;5.20;;;3.60;;
11964;SDS011;6042;41.326;19.826;2023-04-06T12:51:57;4.50;;;3.53;;
11964;SDS011;6042;41.326;19.826;2023-04-06T12:54:25;4.77;;;3.30;;
11964;SDS011;6042;41.326;19.826;2023-04-06T12:56:55;4.87;;;3.70;;
11964;SDS011;6042;41.326;19.826;2023-04-06T12:59:24;3.43;;;3.13;;
11964;SDS011;6042;41.326;19.826;2023-04-06T13:01:52;8.00;;;3.70;;
11964;SDS011;6042;41.326;19.826;2023-04-06T13:04:21;5.97;;;3.40;;
11964;SDS011;6042;41.326;19.826;2023-04-06T13:06:52;4.47;;;3.63;;
11964;SDS011;6042;41.326;19.826;2023-04-06T13:09:20;4.00;;;3.63;;
11964;SDS011;6042;41.326;19.826;2023-04-06T13:11:49;5.03;;;3.50;;
11964;SDS011;6042;41.326;19.826;2023-04-06T13:14:17;3.57;;;3.27;;
11964;SDS011;6042;41.326;19.826;2023-04-06T13:16:46;3.30;;;3.00;;
11964;SDS011;6042;41.326;19.826;2023-04-06T13:19:14;3.83;;;3.30;;
11964;SDS011;6042;41.326;19.826;2023-04-06T13:21:44;5.23;;;3.47;;
11964;SDS011;6042;41.326;19.826;2023-04-06T13:24:14;3.57;;;3.17;;
11964;SDS011;6042;41.326;19.826;2023-04-06T13:26:43;5.53;;;3.87;;
11964;SDS011;6042;41.326;19.826;2023-04-06T13:29:11;3.57;;;3.27;;
11964;SDS011;6042;41.326;19.826;2023-04-06T13:31:40;4.20;;;3.80;;
11964;SDS011;6042;41.326;19.826;2023-04-06T13:34:09;4.00;;;3.40;;
11964;SDS011;6042;41.326;19.826;2023-04-06T13:36:37;3.90;;;3.37;;
11964;SDS011;6042;41.326;19.826;2023-04-06T13:39:09;4.13;;;3.53;;
11964;SDS011;6042;41.326;19.826;2023-04-06T13:41:38;5.03;;;3.77;;
11964;SDS011;6042;41.326;19.826;2023-04-06T13:44:07;5.93;;;3.50;;
11964;SDS011;6042;41.326;19.826;2023-04-06T13:46:36;4.43;;;3.70;;
11964;SDS011;6042;41.326;19.826;2023-04-06T13:49:04;7.37;;;3.97;;
11964;SDS011;6042;41.326;19.826;2023-04-06T13:51:33;7.10;;;3.80;;
11964;SDS011;6042;41.326;19.826;2023-04-06T13:54:01;3.77;;;3.40;;
11964;SDS011;6042;41.326;19.826;2023-04-06T13:56:30;5.47;;;3.20;;
11964;SDS011;6042;41.326;19.826;2023-04-06T13:59:00;3.53;;;3.23;;
11964;SDS011;6042;41.326;19.826;2023-04-06T14:01:28;3.93;;;3.53;;
11964;SDS011;6042;41.326;19.826;2023-04-06T14:03:56;5.70;;;3.90;;
11964;SDS011;6042;41.326;19.826;2023-04-06T14:06:25;4.43;;;4.00;;
11964;SDS011;6042;41.326;19.826;2023-04-06T14:08:57;3.80;;;3.43;;
11964;SDS011;6042;41.326;19.826;2023-04-06T14:11:26;4.03;;;3.63;;
11964;SDS011;6042;41.326;19.826;2023-04-06T14:13:54;3.63;;;3.33;;
11964;SDS011;6042;41.326;19.826;2023-04-06T14:16:25;4.53;;;3.43;;
11964;SDS011;6042;41.326;19.826;2023-04-06T14:18:53;4.67;;;3.63;;
11964;SDS011;6042;41.326;19.826;2023-04-06T14:21:24;6.60;;;4.00;;
11964;SDS011;6042;41.326;19.826;2023-04-06T14:23:53;4.27;;;3.87;;
11964;SDS011;6042;41.326;19.826;2023-04-06T14:26:25;4.20;;;3.50;;
11964;SDS011;6042;41.326;19.826;2023-04-06T14:28:54;4.60;;;4.10;;
11964;SDS011;6042;41.326;19.826;2023-04-06T14:31:22;4.33;;;3.90;;
11964;SDS011;6042;41.326;19.826;2023-04-06T14:33:52;3.83;;;3.43;;
11964;SDS011;6042;41.326;19.826;2023-04-06T14:36:21;6.03;;;4.33;;
11964;SDS011;6042;41.326;19.826;2023-04-06T14:38:49;5.63;;;4.23;;
11964;SDS011;6042;41.326;19.826;2023-04-06T14:41:19;4.80;;;4.30;;
11964;SDS011;6042;41.326;19.826;2023-04-06T14:43:48;4.90;;;4.37;;
11964;SDS011;6042;41.326;19.826;2023-04-06T14:46:19;4.27;;;3.90;;
11964;SDS011;6042;41.326;19.826;2023-04-06T14:48:48;4.77;;;4.27;;
11964;SDS011;6042;41.326;19.826;2023-04-06T14:51:18;5.77;;;4.37;;
11964;SDS011;6042;41.326;19.826;2023-04-06T14:53:47;4.60;;;4.20;;
11964;SDS011;6042;41.326;19.826;2023-04-06T14:56:18;4.37;;;3.97;;
11964;SDS011;6042;41.326;19.826;2023-04-06T14:58:48;4.40;;;3.97;;
11964;SDS011;6042;41.326;19.826;2023-04-06T15:01:17;5.27;;;4.27;;
11964;SDS011;6042;41.326;19.826;2023-04-06T15:03:47;4.50;;;4.10;;
11964;SDS011;6042;41.326;19.826;2023-04-06T15:06:17;5.13;;;3.90;;
11964;SDS011;6042;41.326;19.826;2023-04-06T15:08:48;4.93;;;4.43;;